Time;durP1;ratioP1;P1;durP2;ratioP2;P2;SDS_P1;SDS_P2;PMS_P1;PMS_P2;Temp;Humidity;BMP_temperature;BMP_pressure;BME280_temperature;BME280_humidity;BME280_pressure;Samples;Min_cycle;Max_cycle;Signal;HPM_P1;HPM_P2
2022/10/24 00:07:57;;;;;;;36.60;17.20;;;;;;;12.98;100.00;100380.98;640904;1310;139922;-81
2022/10/24 00:23:00;;;;;;;32.70;17.00;;;;;;;12.91;100.00;100366.52;642450;1295;139511;-81
2022/10/24 00:38:03;;;;;;;68.00;24.10;;;;;;;12.94;100.00;100357.27;641308;1301;140250;-81
2022/10/24 00:53:07;;;;;;;63.90;26.80;;;;;;;12.83;100.00;100340.26;641141;1292;140343;-81
2022/10/24 01:08:41;;;;;;;56.30;23.90;;;;;;;12.73;100.00;100323.77;640486;1294;140282;-81
2022/10/24 01:24:00;;;;;;;44.90;22.40;;;;;;;12.71;100.00;100304.73;640305;1302;140315;-81
2022/10/24 01:39:12;;;;;;;44.40;19.90;;;;;;;12.69;100.00;100288.92;640860;1301;139733;-82
2022/10/24 01:54:15;;;;;;;38.50;20.00;;;;;;;12.59;100.00;100258.61;640548;1295;139788;-81
2022/10/24 02:09:20;;;;;;;40.50;22.30;;;;;;;12.41;100.00;100220.97;641947;1294;140416;-81
2022/10/24 02:24:35;;;;;;;36.60;20.60;;;;;;;12.36;100.00;100200.92;641820;1296;139891;-81
2022/10/24 02:39:41;;;;;;;40.30;22.90;;;;;;;12.30;100.00;100193.77;641416;1302;139566;-81
2022/10/24 02:54:44;;;;;;;39.10;22.60;;;;;;;12.28;100.00;100193.21;640563;1309;139892;-81
2022/10/24 03:09:47;;;;;;;46.10;23.90;;;;;;;12.28;100.00;100177.64;641036;1302;139498;-81
2022/10/24 03:24:50;;;;;;;47.90;24.00;;;;;;;12.26;100.00;100169.96;640495;1302;139685;-82
2022/10/24 03:39:57;;;;;;;40.90;20.80;;;;;;;12.24;100.00;100152.95;641012;1310;139592;-82
2022/10/24 03:55:00;;;;;;;39.30;22.50;;;;;;;12.27;100.00;100127.03;641367;1303;139429;-82
2022/10/24 04:10:05;;;;;;;49.30;23.70;;;;;;;12.30;100.00;100120.48;642386;1305;139741;-82
2022/10/24 04:25:08;;;;;;;53.70;28.30;;;;;;;12.39;100.00;100119.19;641859;1305;139881;-82
2022/10/24 04:40:12;;;;;;;50.90;27.10;;;;;;;12.41;100.00;100089.91;640775;1294;140064;-82
2022/10/24 04:55:15;;;;;;;54.60;26.50;;;;;;;12.49;100.00;100075.80;644599;1310;139476;-83
2022/10/24 05:10:18;;;;;;;62.00;30.60;;;;;;;12.58;100.00;100060.33;645834;1295;140211;-82
2022/10/24 05:25:22;;;;;;;126.60;49.90;;;;;;;12.65;100.00;100055.48;640937;1310;139997;-82
2022/10/24 05:40:25;;;;;;;58.80;29.80;;;;;;;12.71;100.00;100075.70;641832;1304;140269;-82
2022/10/24 05:55:30;;;;;;;80.90;39.90;;;;;;;12.69;100.00;100104.82;641567;1302;1094615;-83
2022/10/24 06:10:34;;;;;;;63.40;34.10;;;;;;;12.70;100.00;100114.30;640411;1301;139652;-83
2022/10/24 06:25:42;;;;;;;61.40;35.60;;;;;;;12.71;100.00;100145.73;640800;1302;139803;-83
2022/10/24 06:40:45;;;;;;;85.40;39.90;;;;;;;12.77;100.00;100133.70;641041;1304;140777;-83
2022/10/24 06:55:48;;;;;;;90.30;47.50;;;;;;;12.90;100.00;100144.52;641678;1302;139324;-83
2022/10/24 07:10:52;;;;;;;174.90;70.70;;;;;;;13.11;100.00;100124.91;641892;1302;139997;-82
2022/10/24 07:26:03;;;;;;;167.50;67.00;;;;;;;13.28;100.00;100101.46;641460;1298;139813;-83
2022/10/24 07:41:07;;;;;;;73.20;43.00;;;;;;;13.38;100.00;100090.27;641157;1296;140594;-83
2022/10/24 07:56:14;;;;;;;89.70;45.60;;;;;;;13.47;100.00;100090.67;643071;1310;139541;-84
2022/10/24 08:11:21;;;;;;;75.30;40.30;;;;;;;13.60;100.00;100085.12;643606;1294;139871;-83
2022/10/24 08:26:25;;;;;;;64.50;35.30;;;;;;;13.78;100.00;100095.19;640784;1310;139496;-83
2022/10/24 08:41:36;;;;;;;61.70;37.60;;;;;;;13.74;100.00;100111.82;639867;1288;139620;-83
2022/10/24 08:56:40;;;;;;;88.80;44.60;;;;;;;13.73;100.00;100100.13;641050;1304;139596;-84
2022/10/24 09:12:02;;;;;;;72.80;40.70;;;;;;;14.06;100.00;100077.23;640400;1291;139734;-84
2022/10/24 09:27:13;;;;;;;70.70;39.80;;;;;;;14.42;100.00;100081.26;641360;1309;139546;-84
2022/10/24 09:42:21;;;;;;;64.80;37.80;;;;;;;14.46;100.00;100115.70;640609;1310;139614;-84
2022/10/24 09:57:24;;;;;;;102.10;60.20;;;;;;;14.54;100.00;100110.63;640096;1304;139802;-84
2022/10/24 10:12:39;;;;;;;85.20;45.40;;;;;;;15.01;100.00;100100.52;641304;1310;139751;-84
2022/10/24 10:27:49;;;;;;;73.60;44.00;;;;;;;15.33;100.00;100074.60;641174;1296;139977;-84
2022/10/24 10:43:18;;;;;;;66.00;39.40;;;;;;;15.22;100.00;100085.86;645150;1302;139675;-84
2022/10/24 10:58:21;;;;;;;89.00;43.50;;;;;;;15.29;100.00;100078.51;643780;1289;139706;-84
2022/10/24 11:13:42;;;;;;;61.10;36.00;;;;;;;15.37;100.00;100061.43;641196;1295;139849;-86
2022/10/24 11:29:13;;;;;;;61.10;36.50;;;;;;;15.67;100.00;100052.83;645903;1301;141027;-83
2022/10/24 11:44:37;;;;;;;53.50;35.20;;;;;;;15.93;100.00;100053.77;642034;1298;140418;-81
2022/10/24 11:59:40;;;;;;;50.40;34.30;;;;;;;16.07;100.00;100048.37;642050;1305;140284;-90
2022/10/24 12:14:57;;;;;;;59.00;34.80;;;;;;;16.18;100.00;100044.23;641730;1295;141992;-85
2022/10/24 12:30:17;;;;;;;57.80;36.80;;;;;;;16.23;100.00;100031.70;641612;1302;139583;-84
2022/10/24 12:45:30;;;;;;;56.30;36.80;;;;;;;16.33;100.00;100006.81;640654;1310;140572;-85
2022/10/24 13:00:38;;;;;;;50.00;32.70;;;;;;;16.55;100.00;99994.32;640038;1299;139568;-85
2022/10/24 13:16:06;;;;;;;43.00;29.70;;;;;;;16.51;100.00;100014.17;640394;1309;140438;-83
2022/10/24 13:31:15;;;;;;;49.50;31.80;;;;;;;16.57;100.00;100017.98;639466;1310;140409;-82
2022/10/24 13:46:34;;;;;;;47.70;31.30;;;;;;;16.61;100.00;100011.42;639973;1295;140780;-82
2022/10/24 14:01:40;;;;;;;81.00;53.40;;;;;;;16.42;100.00;100007.45;640472;1301;141604;-82
2022/10/24 14:16:43;;;;;;;57.70;37.00;;;;;;;16.39;100.00;100022.02;639991;1310;139783;-81
2022/10/24 14:31:55;;;;;;;60.40;38.90;;;;;;;16.32;100.00;100032.09;641727;1295;141363;-82
2022/10/24 14:47:02;;;;;;;75.90;42.50;;;;;;;16.36;100.00;100030.20;641909;1301;139759;-81
2022/10/24 15:02:37;;;;;;;56.20;33.40;;;;;;;16.40;100.00;100017.02;641077;1282;139582;-81
2022/10/24 15:17:46;;;;;;;50.10;29.80;;;;;;;16.38;100.00;100010.20;641405;1295;139693;-81
2022/10/24 15:32:50;;;;;;;80.10;40.60;;;;;;;16.01;100.00;100016.02;641811;1290;140166;-81
2022/10/24 15:47:54;;;;;;;232.00;154.60;;;;;;;15.63;100.00;100010.64;640993;1307;139504;-81
2022/10/24 16:03:00;;;;;;;108.80;54.30;;;;;;;15.31;100.00;100003.45;640441;1297;139828;-81
2022/10/24 16:18:04;;;;;;;113.60;51.80;;;;;;;15.03;100.00;100004.77;641479;1296;141850;-80
2022/10/24 16:33:19;;;;;;;84.20;42.30;;;;;;;14.84;100.00;99990.14;642849;1302;141452;-81
2022/10/24 16:48:23;;;;;;;66.70;35.90;;;;;;;14.70;100.00;99985.00;641572;1304;139288;-81
2022/10/24 17:03:26;;;;;;;63.60;35.50;;;;;;;14.60;100.00;99995.96;643009;1295;139538;-81
2022/10/24 17:18:30;;;;;;;74.60;47.60;;;;;;;14.50;100.00;100001.98;640715;1301;139771;-82
2022/10/24 17:33:34;;;;;;;103.40;59.10;;;;;;;14.46;100.00;100010.27;640682;1279;139980;-81
2022/10/24 17:48:39;;;;;;;67.30;40.10;;;;;;;14.56;100.00;100013.48;642909;1299;139916;-81
2022/10/24 18:03:42;;;;;;;66.50;38.10;;;;;;;14.73;100.00;100016.90;642439;1296;1091786;-81
2022/10/24 18:18:47;;;;;;;83.00;47.80;;;;;;;14.68;100.00;100006.39;642119;1292;139667;-82
2022/10/24 18:33:52;;;;;;;99.20;47.40;;;;;;;14.76;100.00;100013.96;641462;1288;139541;-81
2022/10/24 18:48:55;;;;;;;68.10;43.40;;;;;;;14.84;100.00;100022.23;643568;1295;141279;-82
2022/10/24 19:04:04;;;;;;;44.40;26.60;;;;;;;15.00;100.00;100007.65;643484;1289;139563;-84
2022/10/24 19:19:10;;;;;;;56.30;29.90;;;;;;;15.31;100.00;99973.52;644714;1301;139829;-84
2022/10/24 19:34:15;;;;;;;52.10;31.10;;;;;;;15.57;100.00;99970.56;645931;1296;139354;-85
2022/10/24 19:49:18;;;;;;;50.90;29.30;;;;;;;15.61;100.00;99977.86;644223;1310;139202;-84
2022/10/24 20:04:21;;;;;;;38.60;23.80;;;;;;;15.63;100.00;99985.23;641893;1310;139201;-84
2022/10/24 20:19:25;;;;;;;41.00;23.90;;;;;;;15.63;100.00;99979.41;642290;1308;139801;-84
2022/10/24 20:34:29;;;;;;;47.50;26.20;;;;;;;15.79;100.00;99971.27;644197;1299;139410;-84
2022/10/24 20:49:33;;;;;;;48.40;25.90;;;;;;;15.82;100.00;99966.50;643703;1301;139386;-85
2022/10/24 21:04:36;;;;;;;44.90;28.00;;;;;;;15.88;100.00;99971.36;644274;1307;140502;-84
2022/10/24 21:19:39;;;;;;;45.40;27.00;;;;;;;15.82;100.00;99982.77;642521;1296;139934;-84
2022/10/24 21:34:43;;;;;;;44.00;25.70;;;;;;;15.70;100.00;99972.94;642643;1309;139496;-83
2022/10/24 21:49:49;;;;;;;43.80;25.30;;;;;;;15.76;100.00;100003.02;642420;1306;139190;-84
2022/10/24 22:04:53;;;;;;;36.50;22.90;;;;;;;15.81;100.00;100018.34;641617;1294;139948;-83
2022/10/24 22:19:56;;;;;;;44.20;24.80;;;;;;;15.72;100.00;100021.82;641260;1309;139577;-83
2022/10/24 22:34:59;;;;;;;46.20;24.60;;;;;;;15.73;100.00;100033.05;641538;1304;139974;-83
2022/10/24 22:50:13;;;;;;;33.90;22.50;;;;;;;15.85;100.00;100040.98;641669;1296;139566;-84
2022/10/24 23:05:33;;;;;;;39.90;20.90;;;;;;;15.95;100.00;100039.21;641923;1310;139979;-83
2022/10/24 23:20:41;;;;;;;38.30;18.90;;;;;;;15.96;100.00;100021.02;640588;1310;139442;-83
2022/10/24 23:35:47;;;;;;;31.80;18.60;;;;;;;15.92;100.00;100017.71;641716;1310;139651;-83
2022/10/24 23:50:58;;;;;;;33.00;18.50;;;;;;;15.90;100.00;100042.73;641356;1302;140505;-84
